createdAt,value
2022-08-27T00:01:18.814Z,11.32
2022-08-27T00:04:08.312Z,12.65
2022-08-27T00:06:57.036Z,12.00
2022-08-27T00:09:46.306Z,12.50
2022-08-27T00:12:35.636Z,12.68
2022-08-27T00:15:24.302Z,11.90
2022-08-27T00:18:12.636Z,10.98
2022-08-27T00:21:02.894Z,12.27
2022-08-27T00:23:53.547Z,11.00
2022-08-27T00:26:43.469Z,11.20
2022-08-27T00:29:31.663Z,11.43
2022-08-27T00:32:19.925Z,11.95
2022-08-27T00:35:09.057Z,12.93
2022-08-27T00:37:58.496Z,13.40
2022-08-27T00:40:49.099Z,11.30
2022-08-27T00:43:51.346Z,11.25
2022-08-27T00:46:50.080Z,12.45
2022-08-27T00:49:51.350Z,12.00
2022-08-27T00:52:53.214Z,11.73
2022-08-27T00:55:49.808Z,10.77
2022-08-27T00:58:51.874Z,12.07
2022-08-27T01:01:59.865Z,11.70
2022-08-27T01:04:55.478Z,11.73
2022-08-27T01:07:50.450Z,11.40
2022-08-27T01:10:44.391Z,11.10
2022-08-27T01:13:59.349Z,10.95
2022-08-27T01:16:54.422Z,11.50
2022-08-27T01:20:02.274Z,10.90
2022-08-27T01:23:23.792Z,11.50
2022-08-27T01:26:17.494Z,11.07
2022-08-27T01:29:09.249Z,10.88
2022-08-27T01:32:12.445Z,12.18
2022-08-27T01:35:07.944Z,11.82
2022-08-27T01:37:57.485Z,11.13
2022-08-27T01:40:46.805Z,11.70
2022-08-27T01:43:38.231Z,10.77
2022-08-27T01:46:28.912Z,11.65
2022-08-27T01:49:20.721Z,11.32
2022-08-27T01:52:08.871Z,11.88
2022-08-27T01:54:57.577Z,11.65
2022-08-27T01:57:46.302Z,12.50
2022-08-27T02:00:39.465Z,11.57
2022-08-27T02:03:29.205Z,11.25
2022-08-27T02:06:18.072Z,11.70
2022-08-27T02:09:07.166Z,12.07
2022-08-27T02:11:55.200Z,11.82
2022-08-27T02:14:43.227Z,11.98
2022-08-27T02:17:31.372Z,12.65
2022-08-27T02:20:22.267Z,11.90
2022-08-27T02:23:10.356Z,11.50
2022-08-27T02:25:58.457Z,12.82
2022-08-27T02:28:48.661Z,13.05
2022-08-27T02:31:37.117Z,13.32
2022-08-27T02:34:25.065Z,12.85
2022-08-27T02:37:14.564Z,12.25
2022-08-27T02:40:04.058Z,11.90
2022-08-27T02:42:52.112Z,13.50
2022-08-27T02:45:40.177Z,12.25
2022-08-27T02:48:28.468Z,13.40
2022-08-27T02:51:18.814Z,12.00
2022-08-27T02:54:09.548Z,12.27
2022-08-27T02:56:59.088Z,13.52
2022-08-27T02:59:48.421Z,12.18
2022-08-27T03:02:39.049Z,12.68
2022-08-27T03:05:28.686Z,13.60
2022-08-27T03:08:18.199Z,12.70
2022-08-27T03:11:08.376Z,12.63
2022-08-27T03:13:59.096Z,12.93
2022-08-27T03:16:51.413Z,13.48
2022-08-27T03:19:39.418Z,13.30
2022-08-27T03:22:27.498Z,12.80
2022-08-27T03:25:17.001Z,17.40
2022-08-27T03:28:06.486Z,16.02
2022-08-27T03:31:26.934Z,17.95
2022-08-27T03:34:15.087Z,13.82
2022-08-27T03:37:07.950Z,14.70
2022-08-27T03:39:55.867Z,15.40
2022-08-27T03:42:44.119Z,14.23
2022-08-27T03:45:32.008Z,15.02
2022-08-27T03:48:40.019Z,14.45
2022-08-27T03:51:27.872Z,13.75
2022-08-27T03:54:15.928Z,13.95
2022-08-27T03:57:04.850Z,14.57
2022-08-27T03:59:54.342Z,13.90
2022-08-27T04:02:44.120Z,14.93
2022-08-27T04:05:33.531Z,14.95
2022-08-27T04:08:23.001Z,14.95
2022-08-27T04:11:11.720Z,14.38
2022-08-27T04:14:00.579Z,14.57
2022-08-27T04:16:48.749Z,13.63
2022-08-27T04:19:40.572Z,13.25
2022-08-27T04:22:28.625Z,13.35
2022-08-27T04:25:16.685Z,13.80
2022-08-27T04:28:04.685Z,13.50
2022-08-27T04:30:52.693Z,13.98
2022-08-27T04:33:41.212Z,12.93
2022-08-27T04:36:29.128Z,12.75
2022-08-27T04:39:17.593Z,12.48
2022-08-27T04:42:05.946Z,12.68
2022-08-27T04:44:53.884Z,12.38
2022-08-27T04:47:41.803Z,12.82
2022-08-27T04:50:29.720Z,13.45
2022-08-27T04:53:18.104Z,13.20
2022-08-27T04:56:06.200Z,12.38
2022-08-27T04:59:05.392Z,12.20
2022-08-27T05:01:53.452Z,12.07
2022-08-27T05:04:42.964Z,12.20
2022-08-27T05:07:30.933Z,12.23
2022-08-27T05:10:18.918Z,11.70
2022-08-27T05:13:07.259Z,12.23
2022-08-27T05:16:01.712Z,11.65
2022-08-27T05:18:51.784Z,11.05
2022-08-27T05:21:45.418Z,11.70
2022-08-27T05:24:33.520Z,14.07
2022-08-27T05:27:21.521Z,14.73
2022-08-27T05:30:09.966Z,14.85
2022-08-27T05:32:57.890Z,14.20
2022-08-27T05:35:50.468Z,13.05
2022-08-27T05:38:38.556Z,12.93
2022-08-27T05:41:34.296Z,12.75
2022-08-27T05:44:41.089Z,13.48
2022-08-27T05:47:29.430Z,12.80
2022-08-27T05:50:20.702Z,13.65
2022-08-27T05:53:13.083Z,12.85
2022-08-27T05:56:00.964Z,11.52
2022-08-27T05:59:09.957Z,13.27
2022-08-27T06:01:58.688Z,12.55
2022-08-27T06:04:47.169Z,11.63
2022-08-27T06:07:35.057Z,12.82
2022-08-27T06:10:22.981Z,12.18
2022-08-27T06:13:10.865Z,11.93
2022-08-27T06:16:08.882Z,11.50
2022-08-27T06:18:57.417Z,11.57
2022-08-27T06:21:45.553Z,11.15
2022-08-27T06:24:33.748Z,10.80
2022-08-27T06:27:21.648Z,11.15
2022-08-27T06:30:12.706Z,11.90
2022-08-27T06:33:02.643Z,10.82
2022-08-27T06:35:50.644Z,12.32
2022-08-27T06:38:39.359Z,11.02
2022-08-27T06:41:29.022Z,11.73
2022-08-27T06:44:17.632Z,11.88
2022-08-27T06:47:05.533Z,11.85
2022-08-27T06:49:53.482Z,12.88
2022-08-27T06:52:41.381Z,12.18
2022-08-27T06:55:29.249Z,10.52
2022-08-27T06:58:19.637Z,11.80
2022-08-27T07:01:24.628Z,12.57
2022-08-27T07:04:18.765Z,11.45
2022-08-27T07:07:08.067Z,11.60
2022-08-27T07:09:56.867Z,11.60
2022-08-27T07:12:44.858Z,10.75
2022-08-27T07:15:33.376Z,11.18
2022-08-27T07:18:27.146Z,11.63
2022-08-27T07:21:16.209Z,11.00
2022-08-27T07:24:06.601Z,10.93
2022-08-27T07:26:54.652Z,11.88
2022-08-27T07:29:42.909Z,10.43
2022-08-27T07:32:31.901Z,10.23
2022-08-27T07:35:20.174Z,10.05
2022-08-27T07:38:12.510Z,9.73
2022-08-27T07:41:00.753Z,8.57
2022-08-27T07:44:10.090Z,8.48
2022-08-27T07:47:00.866Z,7.97
2022-08-27T07:49:50.222Z,8.00
2022-08-27T07:52:39.721Z,7.25
2022-08-27T07:55:27.790Z,7.78
2022-08-27T07:58:18.783Z,6.65
2022-08-27T08:01:08.728Z,6.75
2022-08-27T08:04:00.207Z,6.32
2022-08-27T08:06:53.847Z,6.05
2022-08-27T08:09:45.378Z,5.93
2022-08-27T08:12:38.928Z,6.72
2022-08-27T08:15:29.689Z,6.85
2022-08-27T08:18:19.456Z,5.82
2022-08-27T08:21:14.227Z,5.70
2022-08-27T08:26:53.872Z,6.18
2022-08-27T08:29:45.698Z,6.05
2022-08-27T08:32:36.407Z,4.97
2022-08-27T08:35:27.171Z,5.25
2022-08-27T08:38:29.182Z,5.45
2022-08-27T08:41:49.933Z,5.15
2022-08-27T08:44:49.761Z,4.85
2022-08-27T08:48:06.811Z,4.97
2022-08-27T08:51:17.669Z,4.65
2022-08-27T08:54:19.999Z,4.93
2022-08-27T08:57:21.793Z,5.07
2022-08-27T09:00:17.602Z,4.88
2022-08-27T09:03:13.045Z,4.90
2022-08-27T09:06:29.050Z,5.05
2022-08-27T09:09:54.633Z,5.28
2022-08-27T09:12:44.330Z,4.65
2022-08-27T09:15:36.773Z,5.00
2022-08-27T09:18:28.670Z,4.53
2022-08-27T09:21:33.353Z,5.78
2022-08-27T09:25:03.702Z,5.13
2022-08-27T09:27:57.571Z,5.88
2022-08-27T09:30:48.171Z,5.57
2022-08-27T09:33:53.631Z,5.65
2022-08-27T09:37:02.525Z,5.60
2022-08-27T09:40:13.368Z,5.60
2022-08-27T09:43:28.495Z,5.65
2022-08-27T09:46:27.095Z,5.00
2022-08-27T09:49:19.913Z,5.38
2022-08-27T09:52:32.719Z,5.18
2022-08-27T09:55:46.687Z,5.22
2022-08-27T09:59:00.581Z,5.30
2022-08-27T10:02:25.474Z,5.93
2022-08-27T10:08:49.320Z,5.57
2022-08-27T10:12:03.967Z,6.05
2022-08-27T10:18:03.812Z,5.63
2022-08-27T10:21:28.519Z,5.82
2022-08-27T10:24:46.733Z,5.50
2022-08-27T10:27:55.545Z,5.65
2022-08-27T10:31:19.380Z,5.68
2022-08-27T10:34:33.175Z,5.22
2022-08-27T10:37:59.406Z,5.32
2022-08-27T10:41:17.213Z,4.97
2022-08-27T10:44:49.560Z,4.53
2022-08-27T10:48:35.713Z,5.00
2022-08-27T10:52:05.311Z,5.10
2022-08-27T10:55:01.141Z,4.30
2022-08-27T10:58:25.505Z,4.88
2022-08-27T11:02:13.776Z,3.67
2022-08-27T11:05:21.409Z,4.28
2022-08-27T11:08:50.004Z,4.90
2022-08-27T11:12:13.478Z,4.97
2022-08-27T11:15:12.724Z,5.50
2022-08-27T11:18:41.402Z,4.97
2022-08-27T11:21:40.219Z,4.80
2022-08-27T11:25:21.650Z,5.20
2022-08-27T11:28:16.343Z,4.72
2022-08-27T11:31:45.582Z,4.50
2022-08-27T11:34:54.177Z,5.18
2022-08-27T11:38:37.273Z,5.53
2022-08-27T11:42:05.769Z,5.05
2022-08-27T11:45:28.631Z,4.60
2022-08-27T11:48:24.152Z,4.85
2022-08-27T11:51:38.213Z,4.43
2022-08-27T11:54:44.916Z,5.20
2022-08-27T11:57:37.715Z,4.80
2022-08-27T12:00:34.313Z,5.50
2022-08-27T12:03:37.031Z,5.00
2022-08-27T12:06:27.281Z,4.70
2022-08-27T12:09:22.977Z,5.15
2022-08-27T12:12:57.802Z,4.93
2022-08-27T12:16:37.827Z,4.88
2022-08-27T12:19:47.499Z,4.90
2022-08-27T12:23:35.315Z,5.22
2022-08-27T12:26:37.787Z,4.70
2022-08-27T12:29:52.297Z,4.95
2022-08-27T12:35:51.931Z,4.45
2022-08-27T12:38:54.546Z,4.78
2022-08-27T12:41:50.997Z,4.70
2022-08-27T12:44:42.819Z,4.70
2022-08-27T12:47:42.640Z,5.03
2022-08-27T12:50:41.413Z,4.82
2022-08-27T12:54:09.945Z,4.82
2022-08-27T12:57:21.102Z,4.88
2022-08-27T13:00:26.601Z,4.88
2022-08-27T13:03:38.777Z,5.18
2022-08-27T13:06:45.004Z,4.25
2022-08-27T13:09:40.457Z,4.93
2022-08-27T13:12:31.117Z,4.60
2022-08-27T13:15:22.889Z,5.13
2022-08-27T13:18:13.428Z,4.93
2022-08-27T13:21:18.301Z,5.53
2022-08-27T13:24:10.916Z,5.28
2022-08-27T13:27:06.352Z,5.65
2022-08-27T13:30:10.763Z,5.50
2022-08-27T13:33:15.315Z,5.60
2022-08-27T13:36:04.156Z,4.82
2022-08-27T13:38:56.530Z,5.57
2022-08-27T13:41:50.122Z,4.82
2022-08-27T13:44:44.595Z,4.90
2022-08-27T13:47:48.849Z,4.97
2022-08-27T13:50:49.899Z,4.82
2022-08-27T13:54:08.497Z,4.78
2022-08-27T13:57:08.767Z,4.80
2022-08-27T14:00:16.239Z,4.78
2022-08-27T14:03:26.206Z,4.60
2022-08-27T14:06:35.765Z,4.95
2022-08-27T14:09:30.743Z,5.13
2022-08-27T14:12:39.250Z,5.25
2022-08-27T14:15:38.960Z,4.50
2022-08-27T14:18:58.387Z,5.05
2022-08-27T14:21:50.065Z,5.28
2022-08-27T14:24:41.990Z,5.03
2022-08-27T14:27:32.447Z,5.13
2022-08-27T14:30:29.603Z,5.32
2022-08-27T14:33:19.828Z,5.60
2022-08-27T14:36:12.703Z,4.78
2022-08-27T14:39:02.150Z,4.82
2022-08-27T14:41:53.826Z,5.00
2022-08-27T14:44:45.695Z,5.03
2022-08-27T14:47:41.722Z,5.10
2022-08-27T14:50:33.359Z,4.35
2022-08-27T14:53:24.205Z,4.50
2022-08-27T14:56:16.068Z,4.90
2022-08-27T14:59:07.132Z,4.45
2022-08-27T15:01:58.541Z,4.45
2022-08-27T15:04:49.649Z,4.35
2022-08-27T15:07:41.689Z,4.47
2022-08-27T15:10:36.704Z,4.63
2022-08-27T15:13:27.472Z,4.28
2022-08-27T15:16:35.066Z,4.45
2022-08-27T15:19:27.150Z,4.47
2022-08-27T15:22:23.079Z,3.85
2022-08-27T15:25:15.609Z,4.38
2022-08-27T15:28:06.924Z,3.80
2022-08-27T15:30:58.590Z,5.43
2022-08-27T15:33:48.140Z,5.40
2022-08-27T15:36:37.296Z,6.13
2022-08-27T15:39:28.498Z,4.85
2022-08-27T15:42:21.569Z,5.43
2022-08-27T15:45:13.280Z,4.82
2022-08-27T15:48:03.972Z,4.90
2022-08-27T15:50:54.713Z,4.95
2022-08-27T15:53:47.086Z,5.05
2022-08-27T15:56:40.067Z,4.72
2022-08-27T15:59:31.137Z,4.38
2022-08-27T16:02:26.465Z,4.05
2022-08-27T16:05:20.563Z,4.68
2022-08-27T16:10:59.635Z,4.30
2022-08-27T16:13:52.246Z,4.30
2022-08-27T16:16:46.637Z,4.05
2022-08-27T16:19:37.860Z,4.15
2022-08-27T16:22:28.873Z,4.07
2022-08-27T16:25:20.992Z,4.10
2022-08-27T16:28:12.385Z,4.30
2022-08-27T16:31:05.600Z,3.78
2022-08-27T16:34:01.477Z,3.90
2022-08-27T16:36:51.902Z,3.97
2022-08-27T16:39:42.149Z,3.78
2022-08-27T16:42:34.124Z,3.92
2022-08-27T16:45:27.404Z,3.75
2022-08-27T16:48:35.641Z,3.83
2022-08-27T16:51:32.611Z,3.90
2022-08-27T16:54:23.717Z,3.53
2022-08-27T16:57:12.375Z,3.40
2022-08-27T17:00:04.174Z,3.58
2022-08-27T17:02:55.986Z,2.90
2022-08-27T17:05:46.665Z,2.95
2022-08-27T17:08:47.740Z,2.67
2022-08-27T17:11:43.419Z,2.83
2022-08-27T17:14:38.428Z,2.92
2022-08-27T17:17:30.110Z,2.72
2022-08-27T17:20:21.955Z,3.33
2022-08-27T17:23:34.746Z,3.80
2022-08-27T17:26:23.820Z,4.15
2022-08-27T17:29:12.040Z,3.50
2022-08-27T17:32:01.042Z,4.15
2022-08-27T17:34:49.109Z,3.83
2022-08-27T17:37:37.966Z,3.70
2022-08-27T17:40:26.012Z,3.92
2022-08-27T17:43:14.101Z,3.80
2022-08-27T17:46:10.258Z,3.72
2022-08-27T17:48:59.569Z,3.75
2022-08-27T17:51:50.341Z,3.72
2022-08-27T17:54:44.645Z,3.97
2022-08-27T17:57:40.382Z,4.00
2022-08-27T18:00:29.361Z,3.95
2022-08-27T18:03:20.049Z,4.07
2022-08-27T18:06:08.846Z,4.25
2022-08-27T18:08:56.901Z,4.82
2022-08-27T18:11:46.451Z,3.72
2022-08-27T18:14:35.846Z,4.28
2022-08-27T18:17:25.192Z,4.50
2022-08-27T18:20:14.973Z,4.25
2022-08-27T18:23:04.474Z,4.38
2022-08-27T18:25:52.699Z,4.75
2022-08-27T18:28:41.541Z,4.97
2022-08-27T18:31:32.275Z,4.38
2022-08-27T18:34:21.051Z,4.60
2022-08-27T18:37:09.193Z,4.35
2022-08-27T18:39:57.139Z,4.70
2022-08-27T18:42:45.568Z,4.57
2022-08-27T18:45:36.035Z,4.70
2022-08-27T18:48:24.008Z,4.47
2022-08-27T18:51:15.265Z,4.60
2022-08-27T18:54:04.956Z,3.90
2022-08-27T18:56:53.278Z,3.45
2022-08-27T18:59:41.247Z,3.67
2022-08-27T19:02:29.559Z,3.95
2022-08-27T19:05:21.457Z,4.07
2022-08-27T19:08:09.331Z,4.30
2022-08-27T19:10:57.238Z,3.58
2022-08-27T19:13:45.103Z,4.03
2022-08-27T19:16:42.273Z,3.80
2022-08-27T19:19:31.419Z,3.88
2022-08-27T19:22:19.581Z,4.43
2022-08-27T19:25:08.222Z,3.95
2022-08-27T19:27:56.371Z,4.15
2022-08-27T19:30:45.667Z,4.40
2022-08-27T19:33:34.226Z,3.92
2022-08-27T19:36:25.972Z,4.00
2022-08-27T19:39:19.175Z,4.13
2022-08-27T19:42:07.357Z,4.20
2022-08-27T19:44:55.268Z,4.70
2022-08-27T19:47:44.648Z,3.90
2022-08-27T19:50:32.588Z,4.20
2022-08-27T19:53:20.688Z,3.88
2022-08-27T19:56:10.057Z,4.93
2022-08-27T19:59:08.754Z,3.97
2022-08-27T20:02:04.318Z,4.20
2022-08-27T20:05:16.340Z,4.32
2022-08-27T20:08:00.083Z,4.45
2022-08-27T20:10:48.495Z,4.28
2022-08-27T20:13:36.449Z,4.30
2022-08-27T20:16:28.313Z,3.92
2022-08-27T20:19:18.728Z,4.47
2022-08-27T20:22:06.833Z,4.18
2022-08-27T20:24:54.701Z,4.40
2022-08-27T20:27:43.116Z,3.60
2022-08-27T20:30:31.233Z,3.78
2022-08-27T20:33:19.150Z,4.15
2022-08-27T20:36:08.601Z,4.13
2022-08-27T20:38:56.510Z,3.63
2022-08-27T20:41:44.575Z,4.32
2022-08-27T20:44:35.187Z,4.38
2022-08-27T20:47:25.937Z,3.88
2022-08-27T20:50:14.694Z,4.00
2022-08-27T20:53:02.717Z,4.22
2022-08-27T20:55:50.621Z,4.43
2022-08-27T20:58:57.416Z,4.45
2022-08-27T21:01:45.345Z,4.30
2022-08-27T21:04:43.336Z,4.15
2022-08-27T21:07:31.187Z,4.32
2022-08-27T21:10:20.838Z,4.35
2022-08-27T21:13:12.240Z,3.65
2022-08-27T21:16:00.445Z,4.05
2022-08-27T21:18:48.358Z,4.57
2022-08-27T21:21:36.199Z,4.25
2022-08-27T21:24:24.340Z,4.20
2022-08-27T21:27:12.209Z,4.13
2022-08-27T21:30:00.333Z,4.47
2022-08-27T21:32:48.807Z,3.70
2022-08-27T21:35:37.017Z,4.30
2022-08-27T21:38:25.174Z,3.92
2022-08-27T21:41:13.117Z,4.25
2022-08-27T21:44:01.033Z,4.85
2022-08-27T21:46:49.073Z,4.55
2022-08-27T21:49:37.290Z,4.22
2022-08-27T21:52:25.224Z,4.18
2022-08-27T21:55:13.416Z,4.18
2022-08-27T21:58:01.276Z,4.78
2022-08-27T22:00:50.479Z,4.22
2022-08-27T22:03:38.405Z,4.32
2022-08-27T22:06:26.226Z,4.57
2022-08-27T22:09:14.344Z,4.90
2022-08-27T22:12:04.725Z,4.75
2022-08-27T22:14:52.599Z,4.03
2022-08-27T22:17:40.505Z,4.85
2022-08-27T22:20:29.053Z,5.13
2022-08-27T22:23:17.032Z,5.10
2022-08-27T22:26:05.760Z,5.15
2022-08-27T22:28:53.632Z,4.95
2022-08-27T22:31:44.131Z,5.00
2022-08-27T22:34:31.988Z,4.88
2022-08-27T22:37:19.891Z,4.93
2022-08-27T22:40:11.068Z,4.90
2022-08-27T22:43:07.667Z,5.10
2022-08-27T22:45:55.574Z,5.20
2022-08-27T22:48:43.388Z,5.20
2022-08-27T22:51:32.356Z,5.22
2022-08-27T22:54:20.289Z,5.70
2022-08-27T22:57:10.493Z,5.15
2022-08-27T22:59:58.769Z,5.40
2022-08-27T23:02:46.907Z,5.53
2022-08-27T23:05:40.493Z,5.70
2022-08-27T23:08:31.831Z,4.95
2022-08-27T23:11:19.903Z,5.03
2022-08-27T23:14:07.677Z,5.22
2022-08-27T23:16:56.201Z,5.05
2022-08-27T23:19:44.970Z,5.15
2022-08-27T23:22:33.062Z,4.45
2022-08-27T23:25:43.502Z,4.65
2022-08-27T23:28:31.525Z,4.70
2022-08-27T23:31:19.956Z,5.18
2022-08-27T23:34:07.907Z,5.22
2022-08-27T23:36:56.172Z,5.72
2022-08-27T23:39:43.995Z,5.07
2022-08-27T23:42:36.493Z,5.20
2022-08-27T23:45:26.144Z,4.95
2022-08-27T23:48:14.185Z,5.38
2022-08-27T23:51:02.195Z,6.35
2022-08-27T23:53:50.014Z,4.85
2022-08-27T23:56:38.035Z,4.43
2022-08-27T23:59:29.967Z,4.45
